sensor_id;sensor_type;location;lat;lon;timestamp;temperature;humidity
18880;DHT22;9572;52.378;13.404;2022-07-30T00:00:10;19.60;99.90
18880;DHT22;9572;52.378;13.404;2022-07-30T00:02:37;19.50;99.90
18880;DHT22;9572;52.378;13.404;2022-07-30T00:05:05;19.50;99.90
18880;DHT22;9572;52.378;13.404;2022-07-30T00:07:32;19.50;99.90
18880;DHT22;9572;52.378;13.404;2022-07-30T00:10:00;19.50;99.90
18880;DHT22;9572;52.378;13.404;2022-07-30T00:12:27;19.40;99.90
18880;DHT22;9572;52.378;13.404;2022-07-30T00:14:55;19.40;99.90
18880;DHT22;9572;52.378;13.404;2022-07-30T00:17:22;19.40;99.90
18880;DHT22;9572;52.378;13.404;2022-07-30T00:19:49;19.30;99.90
18880;DHT22;9572;52.378;13.404;2022-07-30T00:22:16;19.30;99.90
18880;DHT22;9572;52.378;13.404;2022-07-30T00:24:43;19.30;99.90
18880;DHT22;9572;52.378;13.404;2022-07-30T00:27:10;19.20;99.90
18880;DHT22;9572;52.378;13.404;2022-07-30T00:29:39;19.20;99.90
18880;DHT22;9572;52.378;13.404;2022-07-30T00:32:07;19.20;99.90
18880;DHT22;9572;52.378;13.404;2022-07-30T00:34:34;19.20;99.90
18880;DHT22;9572;52.378;13.404;2022-07-30T00:37:01;19.20;99.90
18880;DHT22;9572;52.378;13.404;2022-07-30T00:39:28;19.10;99.90
18880;DHT22;9572;52.378;13.404;2022-07-30T00:41:56;19.20;99.90
18880;DHT22;9572;52.378;13.404;2022-07-30T00:44:24;19.10;99.90
18880;DHT22;9572;52.378;13.404;2022-07-30T00:46:51;19.10;99.90
18880;DHT22;9572;52.378;13.404;2022-07-30T00:49:19;19.10;99.90
18880;DHT22;9572;52.378;13.404;2022-07-30T00:51:47;19.10;99.90
18880;DHT22;9572;52.378;13.404;2022-07-30T00:54:14;19.10;99.90
18880;DHT22;9572;52.378;13.404;2022-07-30T00:56:41;19.00;99.90
18880;DHT22;9572;52.378;13.404;2022-07-30T00:59:08;19.00;99.90
18880;DHT22;9572;52.378;13.404;2022-07-30T01:01:35;19.00;99.90
18880;DHT22;9572;52.378;13.404;2022-07-30T01:04:02;19.00;99.90
18880;DHT22;9572;52.378;13.404;2022-07-30T01:06:34;19.00;99.90
18880;DHT22;9572;52.378;13.404;2022-07-30T01:09:00;19.00;99.90
18880;DHT22;9572;52.378;13.404;2022-07-30T01:11:33;19.00;99.90
18880;DHT22;9572;52.378;13.404;2022-07-30T01:14:02;19.00;99.90
18880;DHT22;9572;52.378;13.404;2022-07-30T01:16:29;19.00;99.90
18880;DHT22;9572;52.378;13.404;2022-07-30T01:18:57;19.10;99.90
18880;DHT22;9572;52.378;13.404;2022-07-30T01:21:47;19.10;99.90
18880;DHT22;9572;52.378;13.404;2022-07-30T01:24:24;19.10;99.90
18880;DHT22;9572;52.378;13.404;2022-07-30T01:26:54;19.10;99.90
18880;DHT22;9572;52.378;13.404;2022-07-30T01:29:23;19.10;99.90
18880;DHT22;9572;52.378;13.404;2022-07-30T01:31:51;19.10;99.90
18880;DHT22;9572;52.378;13.404;2022-07-30T01:34:22;19.10;99.90
18880;DHT22;9572;52.378;13.404;2022-07-30T01:36:49;19.10;99.90
18880;DHT22;9572;52.378;13.404;2022-07-30T01:39:17;19.10;99.90
18880;DHT22;9572;52.378;13.404;2022-07-30T01:41:45;19.10;99.90
18880;DHT22;9572;52.378;13.404;2022-07-30T01:44:17;19.10;99.90
18880;DHT22;9572;52.378;13.404;2022-07-30T01:46:45;19.00;99.90
18880;DHT22;9572;52.378;13.404;2022-07-30T01:49:14;19.00;99.90
18880;DHT22;9572;52.378;13.404;2022-07-30T01:51:42;19.00;99.90
18880;DHT22;9572;52.378;13.404;2022-07-30T01:54:11;19.00;99.90
18880;DHT22;9572;52.378;13.404;2022-07-30T01:56:40;19.00;99.90
18880;DHT22;9572;52.378;13.404;2022-07-30T01:59:08;19.00;99.90
18880;DHT22;9572;52.378;13.404;2022-07-30T02:01:37;19.00;99.90
18880;DHT22;9572;52.378;13.404;2022-07-30T02:04:04;19.00;99.90
18880;DHT22;9572;52.378;13.404;2022-07-30T02:06:33;19.00;99.90
18880;DHT22;9572;52.378;13.404;2022-07-30T02:09:05;19.00;99.90
18880;DHT22;9572;52.378;13.404;2022-07-30T02:11:38;19.00;99.90
18880;DHT22;9572;52.378;13.404;2022-07-30T02:14:26;19.00;99.90
18880;DHT22;9572;52.378;13.404;2022-07-30T02:16:56;19.00;99.90
18880;DHT22;9572;52.378;13.404;2022-07-30T02:19:32;19.00;99.90
18880;DHT22;9572;52.378;13.404;2022-07-30T02:22:02;18.90;99.90
18880;DHT22;9572;52.378;13.404;2022-07-30T02:24:31;18.90;99.90
18880;DHT22;9572;52.378;13.404;2022-07-30T02:27:03;18.90;99.90
18880;DHT22;9572;52.378;13.404;2022-07-30T02:29:33;18.90;99.90
18880;DHT22;9572;52.378;13.404;2022-07-30T02:32:03;18.80;99.90
18880;DHT22;9572;52.378;13.404;2022-07-30T02:34:32;18.80;99.90
18880;DHT22;9572;52.378;13.404;2022-07-30T02:37:01;18.80;99.90
18880;DHT22;9572;52.378;13.404;2022-07-30T02:39:29;18.80;99.90
18880;DHT22;9572;52.378;13.404;2022-07-30T02:41:58;18.70;99.90
18880;DHT22;9572;52.378;13.404;2022-07-30T02:44:25;18.70;99.90
18880;DHT22;9572;52.378;13.404;2022-07-30T02:46:55;18.70;99.90
18880;DHT22;9572;52.378;13.404;2022-07-30T02:49:25;18.60;99.90
18880;DHT22;9572;52.378;13.404;2022-07-30T02:51:53;18.60;99.90
18880;DHT22;9572;52.378;13.404;2022-07-30T02:54:22;18.50;99.90
18880;DHT22;9572;52.378;13.404;2022-07-30T02:56:50;18.50;99.90
18880;DHT22;9572;52.378;13.404;2022-07-30T02:59:19;18.50;99.90
18880;DHT22;9572;52.378;13.404;2022-07-30T03:01:48;18.40;99.90
18880;DHT22;9572;52.378;13.404;2022-07-30T03:04:18;18.40;99.90
18880;DHT22;9572;52.378;13.404;2022-07-30T03:06:48;18.40;99.90
18880;DHT22;9572;52.378;13.404;2022-07-30T03:09:16;18.40;99.90
18880;DHT22;9572;52.378;13.404;2022-07-30T03:11:45;18.30;99.90
18880;DHT22;9572;52.378;13.404;2022-07-30T03:14:13;18.30;99.90
18880;DHT22;9572;52.378;13.404;2022-07-30T03:16:43;18.30;99.90
18880;DHT22;9572;52.378;13.404;2022-07-30T03:19:14;18.30;99.90
18880;DHT22;9572;52.378;13.404;2022-07-30T03:21:46;18.20;99.90
18880;DHT22;9572;52.378;13.404;2022-07-30T03:24:16;18.20;99.90
18880;DHT22;9572;52.378;13.404;2022-07-30T03:26:44;18.10;99.90
18880;DHT22;9572;52.378;13.404;2022-07-30T03:29:13;18.10;99.90
18880;DHT22;9572;52.378;13.404;2022-07-30T03:31:41;18.10;99.90
18880;DHT22;9572;52.378;13.404;2022-07-30T03:34:10;18.10;99.90
18880;DHT22;9572;52.378;13.404;2022-07-30T03:36:38;18.10;99.90
18880;DHT22;9572;52.378;13.404;2022-07-30T03:39:07;18.20;99.90
18880;DHT22;9572;52.378;13.404;2022-07-30T03:41:35;18.10;99.90
18880;DHT22;9572;52.378;13.404;2022-07-30T03:44:03;18.10;99.90
18880;DHT22;9572;52.378;13.404;2022-07-30T03:46:32;18.10;99.90
18880;DHT22;9572;52.378;13.404;2022-07-30T03:49:00;17.90;99.90
18880;DHT22;9572;52.378;13.404;2022-07-30T03:51:28;17.80;99.90
18880;DHT22;9572;52.378;13.404;2022-07-30T03:53:55;17.90;99.90
18880;DHT22;9572;52.378;13.404;2022-07-30T03:56:23;18.00;99.90
18880;DHT22;9572;52.378;13.404;2022-07-30T03:58:51;18.00;99.90
18880;DHT22;9572;52.378;13.404;2022-07-30T04:01:17;18.00;99.90
18880;DHT22;9572;52.378;13.404;2022-07-30T04:03:44;18.00;99.90
18880;DHT22;9572;52.378;13.404;2022-07-30T04:06:11;17.80;99.90
18880;DHT22;9572;52.378;13.404;2022-07-30T04:08:38;17.70;99.90
18880;DHT22;9572;52.378;13.404;2022-07-30T04:11:05;17.80;99.90
18880;DHT22;9572;52.378;13.404;2022-07-30T04:13:33;17.80;99.90
18880;DHT22;9572;52.378;13.404;2022-07-30T04:16:03;17.90;99.90
18880;DHT22;9572;52.378;13.404;2022-07-30T04:18:36;18.00;99.90
18880;DHT22;9572;52.378;13.404;2022-07-30T04:21:07;18.00;99.90
18880;DHT22;9572;52.378;13.404;2022-07-30T04:23:34;18.00;99.90
18880;DHT22;9572;52.378;13.404;2022-07-30T04:26:01;17.90;99.90
18880;DHT22;9572;52.378;13.404;2022-07-30T04:28:28;17.90;99.90
18880;DHT22;9572;52.378;13.404;2022-07-30T04:30:57;17.90;99.90
18880;DHT22;9572;52.378;13.404;2022-07-30T04:33:24;17.90;99.90
18880;DHT22;9572;52.378;13.404;2022-07-30T04:35:52;18.10;99.90
18880;DHT22;9572;52.378;13.404;2022-07-30T04:38:19;18.00;99.90
18880;DHT22;9572;52.378;13.404;2022-07-30T04:40:47;17.90;99.90
18880;DHT22;9572;52.378;13.404;2022-07-30T04:43:14;17.90;99.90
18880;DHT22;9572;52.378;13.404;2022-07-30T04:45:41;18.00;99.90
18880;DHT22;9572;52.378;13.404;2022-07-30T04:48:10;18.10;99.90
18880;DHT22;9572;52.378;13.404;2022-07-30T04:50:40;18.20;99.90
18880;DHT22;9572;52.378;13.404;2022-07-30T04:53:07;18.20;99.90
18880;DHT22;9572;52.378;13.404;2022-07-30T04:55:35;18.30;99.90
18880;DHT22;9572;52.378;13.404;2022-07-30T04:58:05;18.40;99.90
18880;DHT22;9572;52.378;13.404;2022-07-30T05:00:33;18.40;99.90
18880;DHT22;9572;52.378;13.404;2022-07-30T05:03:01;18.40;99.90
18880;DHT22;9572;52.378;13.404;2022-07-30T05:05:30;18.40;99.90
18880;DHT22;9572;52.378;13.404;2022-07-30T05:07:59;18.50;99.90
18880;DHT22;9572;52.378;13.404;2022-07-30T05:10:27;18.50;99.90
18880;DHT22;9572;52.378;13.404;2022-07-30T05:12:54;18.60;99.90
18880;DHT22;9572;52.378;13.404;2022-07-30T05:15:21;18.70;99.90
18880;DHT22;9572;52.378;13.404;2022-07-30T05:17:48;18.70;99.90
18880;DHT22;9572;52.378;13.404;2022-07-30T05:20:16;18.70;99.90
18880;DHT22;9572;52.378;13.404;2022-07-30T05:22:44;18.60;99.90
18880;DHT22;9572;52.378;13.404;2022-07-30T05:25:11;18.50;99.90
18880;DHT22;9572;52.378;13.404;2022-07-30T05:27:38;18.70;99.90
18880;DHT22;9572;52.378;13.404;2022-07-30T05:30:06;18.70;99.90
18880;DHT22;9572;52.378;13.404;2022-07-30T05:32:33;18.80;99.90
18880;DHT22;9572;52.378;13.404;2022-07-30T05:35:00;18.80;99.90
18880;DHT22;9572;52.378;13.404;2022-07-30T05:37:27;18.90;99.90
18880;DHT22;9572;52.378;13.404;2022-07-30T05:39:55;18.90;99.90
18880;DHT22;9572;52.378;13.404;2022-07-30T05:42:22;18.90;99.90
18880;DHT22;9572;52.378;13.404;2022-07-30T05:44:49;18.90;99.90
18880;DHT22;9572;52.378;13.404;2022-07-30T05:47:16;19.00;99.90
18880;DHT22;9572;52.378;13.404;2022-07-30T05:49:45;19.10;99.90
18880;DHT22;9572;52.378;13.404;2022-07-30T05:52:12;19.30;99.90
18880;DHT22;9572;52.378;13.404;2022-07-30T05:54:40;19.30;99.90
18880;DHT22;9572;52.378;13.404;2022-07-30T05:57:08;19.30;99.90
18880;DHT22;9572;52.378;13.404;2022-07-30T05:59:35;19.40;99.90
18880;DHT22;9572;52.378;13.404;2022-07-30T06:02:02;19.40;99.90
18880;DHT22;9572;52.378;13.404;2022-07-30T06:06:59;19.60;99.90
18880;DHT22;9572;52.378;13.404;2022-07-30T06:09:26;19.40;99.90
18880;DHT22;9572;52.378;13.404;2022-07-30T06:11:53;19.40;99.90
18880;DHT22;9572;52.378;13.404;2022-07-30T06:14:21;19.30;99.90
18880;DHT22;9572;52.378;13.404;2022-07-30T06:16:48;19.40;99.90
18880;DHT22;9572;52.378;13.404;2022-07-30T06:19:15;19.50;99.90
18880;DHT22;9572;52.378;13.404;2022-07-30T06:21:42;19.60;99.90
18880;DHT22;9572;52.378;13.404;2022-07-30T06:24:09;19.80;99.90
18880;DHT22;9572;52.378;13.404;2022-07-30T06:26:36;20.00;99.90
18880;DHT22;9572;52.378;13.404;2022-07-30T06:29:03;20.10;99.90
18880;DHT22;9572;52.378;13.404;2022-07-30T06:31:31;20.30;99.90
18880;DHT22;9572;52.378;13.404;2022-07-30T06:33:58;20.30;99.90
18880;DHT22;9572;52.378;13.404;2022-07-30T06:36:25;20.50;99.90
18880;DHT22;9572;52.378;13.404;2022-07-30T06:38:52;20.60;99.90
18880;DHT22;9572;52.378;13.404;2022-07-30T06:41:19;20.60;99.90
18880;DHT22;9572;52.378;13.404;2022-07-30T06:43:46;20.70;99.90
18880;DHT22;9572;52.378;13.404;2022-07-30T06:46:13;20.80;99.90
18880;DHT22;9572;52.378;13.404;2022-07-30T06:48:41;20.80;99.90
18880;DHT22;9572;52.378;13.404;2022-07-30T06:51:08;20.90;99.90
18880;DHT22;9572;52.378;13.404;2022-07-30T06:53:35;20.90;99.90
18880;DHT22;9572;52.378;13.404;2022-07-30T06:56:02;21.00;99.90
18880;DHT22;9572;52.378;13.404;2022-07-30T06:58:29;21.00;99.90
18880;DHT22;9572;52.378;13.404;2022-07-30T07:00:56;21.20;99.90
18880;DHT22;9572;52.378;13.404;2022-07-30T07:03:23;21.10;99.90
18880;DHT22;9572;52.378;13.404;2022-07-30T07:05:53;21.10;99.90
18880;DHT22;9572;52.378;13.404;2022-07-30T07:08:20;21.20;99.90
18880;DHT22;9572;52.378;13.404;2022-07-30T07:10:47;21.20;99.90
18880;DHT22;9572;52.378;13.404;2022-07-30T07:13:14;21.30;99.90
18880;DHT22;9572;52.378;13.404;2022-07-30T07:15:41;21.40;99.90
18880;DHT22;9572;52.378;13.404;2022-07-30T07:18:08;21.30;99.90
18880;DHT22;9572;52.378;13.404;2022-07-30T07:20:37;21.30;99.90
18880;DHT22;9572;52.378;13.404;2022-07-30T07:23:05;21.30;99.90
18880;DHT22;9572;52.378;13.404;2022-07-30T07:25:33;21.30;99.90
18880;DHT22;9572;52.378;13.404;2022-07-30T07:27:59;21.30;99.90
18880;DHT22;9572;52.378;13.404;2022-07-30T07:30:27;21.30;99.90
18880;DHT22;9572;52.378;13.404;2022-07-30T07:32:54;21.40;99.90
18880;DHT22;9572;52.378;13.404;2022-07-30T07:35:20;21.50;99.90
18880;DHT22;9572;52.378;13.404;2022-07-30T07:37:47;21.50;99.90
18880;DHT22;9572;52.378;13.404;2022-07-30T07:40:16;21.50;99.90
18880;DHT22;9572;52.378;13.404;2022-07-30T07:42:43;21.50;99.90
18880;DHT22;9572;52.378;13.404;2022-07-30T07:45:10;21.60;99.90
18880;DHT22;9572;52.378;13.404;2022-07-30T07:47:47;21.70;99.90
18880;DHT22;9572;52.378;13.404;2022-07-30T07:50:17;21.70;99.90
18880;DHT22;9572;52.378;13.404;2022-07-30T07:52:44;21.80;99.90
18880;DHT22;9572;52.378;13.404;2022-07-30T07:55:11;21.90;99.90
18880;DHT22;9572;52.378;13.404;2022-07-30T07:57:40;22.00;99.90
18880;DHT22;9572;52.378;13.404;2022-07-30T08:00:09;22.10;99.90
18880;DHT22;9572;52.378;13.404;2022-07-30T08:02:36;22.20;99.90
18880;DHT22;9572;52.378;13.404;2022-07-30T08:05:04;22.30;99.90
18880;DHT22;9572;52.378;13.404;2022-07-30T08:07:31;22.40;99.90
18880;DHT22;9572;52.378;13.404;2022-07-30T08:09:58;22.40;99.90
18880;DHT22;9572;52.378;13.404;2022-07-30T08:12:25;22.50;99.90
18880;DHT22;9572;52.378;13.404;2022-07-30T08:14:54;22.70;99.90
18880;DHT22;9572;52.378;13.404;2022-07-30T08:19:57;22.70;99.90
18880;DHT22;9572;52.378;13.404;2022-07-30T08:22:25;22.70;99.90
18880;DHT22;9572;52.378;13.404;2022-07-30T08:24:52;22.70;99.90
18880;DHT22;9572;52.378;13.404;2022-07-30T08:27:20;22.70;99.90
18880;DHT22;9572;52.378;13.404;2022-07-30T08:29:47;22.60;99.90
18880;DHT22;9572;52.378;13.404;2022-07-30T08:32:15;22.70;99.90
18880;DHT22;9572;52.378;13.404;2022-07-30T08:34:42;22.80;99.90
18880;DHT22;9572;52.378;13.404;2022-07-30T08:37:09;22.80;99.90
18880;DHT22;9572;52.378;13.404;2022-07-30T08:39:36;22.90;99.90
18880;DHT22;9572;52.378;13.404;2022-07-30T08:42:03;23.00;99.90
18880;DHT22;9572;52.378;13.404;2022-07-30T08:44:32;23.00;99.90
18880;DHT22;9572;52.378;13.404;2022-07-30T08:47:01;22.90;99.90
18880;DHT22;9572;52.378;13.404;2022-07-30T08:49:30;23.00;99.90
18880;DHT22;9572;52.378;13.404;2022-07-30T08:51:57;22.80;99.90
18880;DHT22;9572;52.378;13.404;2022-07-30T08:54:25;22.90;99.90
18880;DHT22;9572;52.378;13.404;2022-07-30T08:56:52;23.10;99.90
18880;DHT22;9572;52.378;13.404;2022-07-30T08:59:22;23.40;99.90
18880;DHT22;9572;52.378;13.404;2022-07-30T09:01:50;23.50;99.90
18880;DHT22;9572;52.378;13.404;2022-07-30T09:04:17;23.40;99.90
18880;DHT22;9572;52.378;13.404;2022-07-30T09:06:45;23.20;99.90
18880;DHT22;9572;52.378;13.404;2022-07-30T09:09:12;23.10;99.90
18880;DHT22;9572;52.378;13.404;2022-07-30T09:11:39;23.00;99.90
18880;DHT22;9572;52.378;13.404;2022-07-30T09:14:10;22.90;99.90
18880;DHT22;9572;52.378;13.404;2022-07-30T09:16:38;23.00;99.90
18880;DHT22;9572;52.378;13.404;2022-07-30T09:19:13;23.10;99.90
18880;DHT22;9572;52.378;13.404;2022-07-30T09:21:40;23.20;99.90
18880;DHT22;9572;52.378;13.404;2022-07-30T09:24:10;23.30;99.90
18880;DHT22;9572;52.378;13.404;2022-07-30T09:26:55;23.20;99.90
18880;DHT22;9572;52.378;13.404;2022-07-30T09:29:24;23.10;99.90
18880;DHT22;9572;52.378;13.404;2022-07-30T09:31:53;23.20;99.90
18880;DHT22;9572;52.378;13.404;2022-07-30T09:34:28;23.40;99.90
18880;DHT22;9572;52.378;13.404;2022-07-30T09:36:57;23.50;99.90
18880;DHT22;9572;52.378;13.404;2022-07-30T09:39:34;23.50;99.90
18880;DHT22;9572;52.378;13.404;2022-07-30T09:42:02;23.30;99.90
18880;DHT22;9572;52.378;13.404;2022-07-30T09:44:30;23.40;99.90
18880;DHT22;9572;52.378;13.404;2022-07-30T09:46:57;23.60;99.90
18880;DHT22;9572;52.378;13.404;2022-07-30T09:49:29;23.50;99.90
18880;DHT22;9572;52.378;13.404;2022-07-30T09:51:57;23.60;99.90
18880;DHT22;9572;52.378;13.404;2022-07-30T09:54:24;23.70;99.90
18880;DHT22;9572;52.378;13.404;2022-07-30T09:57:11;23.80;99.90
18880;DHT22;9572;52.378;13.404;2022-07-30T09:59:38;24.20;99.90
18880;DHT22;9572;52.378;13.404;2022-07-30T10:02:05;24.60;99.90
18880;DHT22;9572;52.378;13.404;2022-07-30T10:04:33;25.00;99.90
18880;DHT22;9572;52.378;13.404;2022-07-30T10:07:00;25.50;99.90
18880;DHT22;9572;52.378;13.404;2022-07-30T10:09:29;26.10;99.90
18880;DHT22;9572;52.378;13.404;2022-07-30T10:11:58;26.50;99.90
18880;DHT22;9572;52.378;13.404;2022-07-30T10:14:29;26.70;99.90
18880;DHT22;9572;52.378;13.404;2022-07-30T10:16:57;26.90;99.90
18880;DHT22;9572;52.378;13.404;2022-07-30T10:19:25;26.80;99.90
18880;DHT22;9572;52.378;13.404;2022-07-30T10:21:52;26.50;99.90
18880;DHT22;9572;52.378;13.404;2022-07-30T10:24:23;26.50;99.90
18880;DHT22;9572;52.378;13.404;2022-07-30T10:26:51;26.20;99.90
18880;DHT22;9572;52.378;13.404;2022-07-30T10:29:19;26.00;99.90
18880;DHT22;9572;52.378;13.404;2022-07-30T10:31:48;26.10;99.90
18880;DHT22;9572;52.378;13.404;2022-07-30T10:34:18;26.10;99.90
18880;DHT22;9572;52.378;13.404;2022-07-30T10:36:47;26.30;99.90
18880;DHT22;9572;52.378;13.404;2022-07-30T10:39:19;26.40;99.90
18880;DHT22;9572;52.378;13.404;2022-07-30T10:41:56;26.30;99.90
18880;DHT22;9572;52.378;13.404;2022-07-30T10:47:38;26.30;99.90
18880;DHT22;9572;52.378;13.404;2022-07-30T10:50:09;26.30;99.90
18880;DHT22;9572;52.378;13.404;2022-07-30T10:52:46;26.30;99.90
18880;DHT22;9572;52.378;13.404;2022-07-30T10:55:15;26.20;99.90
18880;DHT22;9572;52.378;13.404;2022-07-30T10:58:00;26.30;99.90
18880;DHT22;9572;52.378;13.404;2022-07-30T11:00:28;26.40;99.90
18880;DHT22;9572;52.378;13.404;2022-07-30T11:03:16;26.70;99.90
18880;DHT22;9572;52.378;13.404;2022-07-30T11:05:45;26.90;99.90
18880;DHT22;9572;52.378;13.404;2022-07-30T11:08:33;27.50;99.90
18880;DHT22;9572;52.378;13.404;2022-07-30T11:11:01;28.00;99.90
18880;DHT22;9572;52.378;13.404;2022-07-30T11:13:49;28.70;99.90
18880;DHT22;9572;52.378;13.404;2022-07-30T11:16:17;28.80;99.90
18880;DHT22;9572;52.378;13.404;2022-07-30T11:19:06;28.90;99.90
18880;DHT22;9572;52.378;13.404;2022-07-30T11:21:36;29.30;99.90
18880;DHT22;9572;52.378;13.404;2022-07-30T11:24:04;29.30;99.90
18880;DHT22;9572;52.378;13.404;2022-07-30T11:26:51;29.40;99.90
18880;DHT22;9572;52.378;13.404;2022-07-30T11:29:38;29.00;99.90
18880;DHT22;9572;52.378;13.404;2022-07-30T11:32:26;29.10;99.90
18880;DHT22;9572;52.378;13.404;2022-07-30T11:35:16;29.40;99.90
18880;DHT22;9572;52.378;13.404;2022-07-30T11:38:01;29.70;99.90
18880;DHT22;9572;52.378;13.404;2022-07-30T11:40:29;29.90;99.90
18880;DHT22;9572;52.378;13.404;2022-07-30T11:43:19;29.80;99.90
18880;DHT22;9572;52.378;13.404;2022-07-30T11:45:47;30.10;99.90
18880;DHT22;9572;52.378;13.404;2022-07-30T11:48:16;30.40;99.90
18880;DHT22;9572;52.378;13.404;2022-07-30T11:50:46;30.30;98.80
18880;DHT22;9572;52.378;13.404;2022-07-30T11:53:16;30.10;99.00
18880;DHT22;9572;52.378;13.404;2022-07-30T11:55:45;30.00;97.20
18880;DHT22;9572;52.378;13.404;2022-07-30T11:58:25;29.90;98.10
18880;DHT22;9572;52.378;13.404;2022-07-30T12:00:53;30.10;97.60
18880;DHT22;9572;52.378;13.404;2022-07-30T12:03:22;30.20;97.10
18880;DHT22;9572;52.378;13.404;2022-07-30T12:05:50;30.10;97.60
18880;DHT22;9572;52.378;13.404;2022-07-30T12:08:18;30.10;96.90
18880;DHT22;9572;52.378;13.404;2022-07-30T12:10:55;29.70;96.40
18880;DHT22;9572;52.378;13.404;2022-07-30T12:13:22;29.60;96.10
18880;DHT22;9572;52.378;13.404;2022-07-30T12:15:49;29.70;96.10
18880;DHT22;9572;52.378;13.404;2022-07-30T12:18:23;29.80;95.70
18880;DHT22;9572;52.378;13.404;2022-07-30T12:20:57;30.10;95.60
18880;DHT22;9572;52.378;13.404;2022-07-30T12:23:25;29.80;96.80
18880;DHT22;9572;52.378;13.404;2022-07-30T12:25:52;30.00;95.70
18880;DHT22;9572;52.378;13.404;2022-07-30T12:28:20;30.10;96.10
18880;DHT22;9572;52.378;13.404;2022-07-30T12:30:47;29.80;95.60
18880;DHT22;9572;52.378;13.404;2022-07-30T12:33:14;29.90;95.50
18880;DHT22;9572;52.378;13.404;2022-07-30T12:35:42;29.30;94.70
18880;DHT22;9572;52.378;13.404;2022-07-30T12:38:11;29.50;96.20
18880;DHT22;9572;52.378;13.404;2022-07-30T12:40:56;29.60;95.40
18880;DHT22;9572;52.378;13.404;2022-07-30T12:43:43;29.20;94.90
18880;DHT22;9572;52.378;13.404;2022-07-30T12:46:12;29.10;94.00
18880;DHT22;9572;52.378;13.404;2022-07-30T12:48:54;29.00;94.70
18880;DHT22;9572;52.378;13.404;2022-07-30T12:51:23;29.20;94.30
18880;DHT22;9572;52.378;13.404;2022-07-30T12:53:52;29.00;94.50
18880;DHT22;9572;52.378;13.404;2022-07-30T12:56:21;28.80;94.90
18880;DHT22;9572;52.378;13.404;2022-07-30T12:58:48;28.70;94.60
18880;DHT22;9572;52.378;13.404;2022-07-30T13:01:15;28.80;95.10
18880;DHT22;9572;52.378;13.404;2022-07-30T13:03:43;28.90;93.80
18880;DHT22;9572;52.378;13.404;2022-07-30T13:06:12;28.70;93.80
18880;DHT22;9572;52.378;13.404;2022-07-30T13:08:47;28.80;94.70
18880;DHT22;9572;52.378;13.404;2022-07-30T13:11:16;28.90;92.20
18880;DHT22;9572;52.378;13.404;2022-07-30T13:13:43;29.20;93.70
18880;DHT22;9572;52.378;13.404;2022-07-30T13:16:10;29.40;93.30
18880;DHT22;9572;52.378;13.404;2022-07-30T13:18:38;29.60;92.50
18880;DHT22;9572;52.378;13.404;2022-07-30T13:21:06;29.40;93.30
18880;DHT22;9572;52.378;13.404;2022-07-30T13:23:34;29.30;93.70
18880;DHT22;9572;52.378;13.404;2022-07-30T13:26:02;29.20;93.30
18880;DHT22;9572;52.378;13.404;2022-07-30T13:28:30;29.00;93.80
18880;DHT22;9572;52.378;13.404;2022-07-30T13:30:58;28.80;92.90
18880;DHT22;9572;52.378;13.404;2022-07-30T13:33:25;28.90;92.80
18880;DHT22;9572;52.378;13.404;2022-07-30T13:35:52;28.70;93.00
18880;DHT22;9572;52.378;13.404;2022-07-30T13:38:19;28.90;94.10
18880;DHT22;9572;52.378;13.404;2022-07-30T13:40:46;29.10;93.40
18880;DHT22;9572;52.378;13.404;2022-07-30T13:43:13;29.40;93.00
18880;DHT22;9572;52.378;13.404;2022-07-30T13:45:41;29.30;93.70
18880;DHT22;9572;52.378;13.404;2022-07-30T13:48:08;29.40;93.90
18880;DHT22;9572;52.378;13.404;2022-07-30T13:50:36;29.60;94.40
18880;DHT22;9572;52.378;13.404;2022-07-30T13:53:03;29.70;92.30
18880;DHT22;9572;52.378;13.404;2022-07-30T13:55:30;29.70;92.90
18880;DHT22;9572;52.378;13.404;2022-07-30T13:57:57;29.10;92.90
18880;DHT22;9572;52.378;13.404;2022-07-30T14:00:24;28.80;94.10
18880;DHT22;9572;52.378;13.404;2022-07-30T14:02:58;29.00;94.30
18880;DHT22;9572;52.378;13.404;2022-07-30T14:05:25;29.20;93.50
18880;DHT22;9572;52.378;13.404;2022-07-30T14:07:53;29.10;93.70
18880;DHT22;9572;52.378;13.404;2022-07-30T14:10:20;28.90;94.60
18880;DHT22;9572;52.378;13.404;2022-07-30T14:12:48;28.60;93.90
18880;DHT22;9572;52.378;13.404;2022-07-30T14:15:15;28.30;94.30
18880;DHT22;9572;52.378;13.404;2022-07-30T14:17:42;28.10;94.10
18880;DHT22;9572;52.378;13.404;2022-07-30T14:20:10;27.90;94.00
18880;DHT22;9572;52.378;13.404;2022-07-30T14:22:37;28.00;95.30
18880;DHT22;9572;52.378;13.404;2022-07-30T14:25:05;28.20;94.90
18880;DHT22;9572;52.378;13.404;2022-07-30T14:27:32;28.30;94.40
18880;DHT22;9572;52.378;13.404;2022-07-30T14:29:59;28.50;94.10
18880;DHT22;9572;52.378;13.404;2022-07-30T14:32:26;28.60;94.70
18880;DHT22;9572;52.378;13.404;2022-07-30T14:34:53;28.90;94.60
18880;DHT22;9572;52.378;13.404;2022-07-30T14:37:21;29.10;94.30
18880;DHT22;9572;52.378;13.404;2022-07-30T14:39:49;29.20;93.60
18880;DHT22;9572;52.378;13.404;2022-07-30T14:42:16;29.20;93.70
18880;DHT22;9572;52.378;13.404;2022-07-30T14:44:45;29.20;93.30
18880;DHT22;9572;52.378;13.404;2022-07-30T14:47:12;28.90;93.00
18880;DHT22;9572;52.378;13.404;2022-07-30T14:49:39;28.70;93.10
18880;DHT22;9572;52.378;13.404;2022-07-30T14:52:06;28.40;93.50
18880;DHT22;9572;52.378;13.404;2022-07-30T14:54:34;28.20;93.50
18880;DHT22;9572;52.378;13.404;2022-07-30T14:57:01;28.10;94.30
18880;DHT22;9572;52.378;13.404;2022-07-30T14:59:28;27.80;93.90
18880;DHT22;9572;52.378;13.404;2022-07-30T15:01:55;27.50;94.50
18880;DHT22;9572;52.378;13.404;2022-07-30T15:04:22;27.20;93.50
18880;DHT22;9572;52.378;13.404;2022-07-30T15:06:49;27.00;93.30
18880;DHT22;9572;52.378;13.404;2022-07-30T15:09:16;27.10;94.50
18880;DHT22;9572;52.378;13.404;2022-07-30T15:11:45;27.20;94.30
18880;DHT22;9572;52.378;13.404;2022-07-30T15:14:14;27.20;94.50
18880;DHT22;9572;52.378;13.404;2022-07-30T15:16:41;27.30;94.20
18880;DHT22;9572;52.378;13.404;2022-07-30T15:19:08;27.40;94.10
18880;DHT22;9572;52.378;13.404;2022-07-30T15:21:36;27.40;94.30
18880;DHT22;9572;52.378;13.404;2022-07-30T15:24:03;27.40;94.50
18880;DHT22;9572;52.378;13.404;2022-07-30T15:26:30;27.40;94.70
18880;DHT22;9572;52.378;13.404;2022-07-30T15:28:58;27.40;95.00
18880;DHT22;9572;52.378;13.404;2022-07-30T15:31:25;27.30;93.80
18880;DHT22;9572;52.378;13.404;2022-07-30T15:33:53;27.20;94.60
18880;DHT22;9572;52.378;13.404;2022-07-30T15:36:20;27.10;93.60
18880;DHT22;9572;52.378;13.404;2022-07-30T15:38:47;26.80;94.80
18880;DHT22;9572;52.378;13.404;2022-07-30T15:41:14;26.70;95.10
18880;DHT22;9572;52.378;13.404;2022-07-30T15:43:40;26.60;94.80
18880;DHT22;9572;52.378;13.404;2022-07-30T15:46:09;26.50;95.00
18880;DHT22;9572;52.378;13.404;2022-07-30T15:48:36;26.40;95.60